Weather History for Hallock, MN

Change the Weather History Date:

Sunday, December 9, 2012

  Actual Average Record
Temperature  
Mean Temperature -11 °F -  
Max Temperature -2 °F 18 °F 47 °F (1990)
Min Temperature -20 °F 2 °F -27 °F (1947)
Degree Days  
Heating Degree Days 76    
Moisture  
Dew Point -14 °F    
Average Humidity 80    
Maximum Humidity 85    
Minimum Humidity 70    
Precipitation  
Precipitation 0.00 in - - ()
Sea Level Pressure  
Sea Level Pressure 30.29 in    
Wind  
Wind Speed 11 mph (NNW)    
Max Wind Speed 17 mph    
Max Gust Speed -    
Visibility 9 miles    
Events Snow    
Averages and records for this station are not official NWS values.
T = Trace of Precipitation, MM = Missing Value Source: NWS Daily Summary

Daily Weather History Graph

Daily Weather History Graph

Search for Another Location

Airport:

Trip Planner

Search our weather history database for the weather conditions in past years. The results will help you decide how hot, cold, wet, or windy it might be!

Date:

Astronomy

Dec. 09, 2012 Rise Set
Actual Time 8:09 AM CST 4:31 PM CST
Civil Twilight 7:32 AM CST 5:08 PM CST
Nautical Twilight 6:52 AM CST 5:48 PM CST
Astronomical Twilight 6:14 AM CST 6:26 PM CST
Moon 3:27 AM CST (12/9) 1:52 PM CST (12/9)
Length of Visible Light 9h 35m
Length of Day
8h 22m
Waning Crescent, 18% of the Moon is Illuminated
Dec 9
Waning Crescent
Dec 13
New
Dec 19
First Quarter
Dec 28
Full
Jan 4
Last Quarter

Hourly Weather History & Observations

Time (CST) Temp. Windchill Dew Point Humidity Pressure Visibility Wind Dir Wind Speed Gust Speed Precip Events Conditions
12:14 AM -2.2 °F -18.9 °F -7.6 °F 78% 30.21 in 10.0 mi North 10.4 mph - N/A   Scattered Clouds
12:34 AM -2.2 °F -22.2 °F -5.8 °F 85% 30.21 in 10.0 mi North 15.0 mph - N/A   Clear
12:54 AM -2.2 °F -21.5 °F -7.6 °F 78% 30.22 in 10.0 mi North 13.8 mph - N/A   Clear
1:14 AM -2.2 °F -21.5 °F -7.6 °F 78% 30.22 in 10.0 mi North 13.8 mph - N/A   Clear
1:34 AM -4.0 °F -23.0 °F -7.6 °F 85% 30.24 in 10.0 mi North 12.7 mph - N/A   Clear
1:54 AM -4.0 °F -23.0 °F -9.4 °F 78% 30.25 in 10.0 mi North 12.7 mph - N/A   Clear
2:14 AM -4.0 °F -23.0 °F -9.4 °F 78% 30.25 in 10.0 mi North 12.7 mph - N/A   Clear
2:34 AM -5.8 °F -23.4 °F -11.2 °F 77% 30.26 in 10.0 mi North 10.4 mph - N/A   Clear
2:54 AM -7.6 °F -26.6 °F -11.2 °F 84% 30.27 in 10.0 mi North 11.5 mph - N/A   Clear
3:14 AM -7.6 °F -25.7 °F -13.0 °F 77% 30.27 in 10.0 mi North 10.4 mph - N/A   Clear
3:34 AM -9.4 °F -29.8 °F -13.0 °F 84% 30.27 in 10.0 mi NNW 12.7 mph - N/A   Clear
3:54 AM -9.4 °F -27.9 °F -13.0 °F 84% 30.27 in 10.0 mi North 10.4 mph - N/A   Clear
4:14 AM -9.4 °F -29.8 °F -14.8 °F 77% 30.28 in 10.0 mi NNW 12.7 mph - N/A   Clear
4:33 AM -7.6 °F -26.6 °F -13.0 °F 77% 30.28 in 10.0 mi North 11.5 mph - N/A   Clear
4:54 AM -9.4 °F -28.9 °F -14.8 °F 77% 30.29 in 10.0 mi NNW 11.5 mph - N/A   Clear
5:14 AM -9.4 °F -28.9 °F -14.8 °F 77% 30.30 in 10.0 mi North 11.5 mph - N/A   Clear
5:33 AM -9.4 °F -27.9 °F -14.8 °F 77% 30.31 in 10.0 mi NNW 10.4 mph - N/A   Clear
5:54 AM -7.6 °F -28.3 °F -13.0 °F 77% 30.31 in 10.0 mi North 13.8 mph - N/A   Clear
6:14 AM -9.4 °F -31.4 °F -14.8 °F 77% 30.32 in 10.0 mi NNW 15.0 mph - N/A   Clear
6:34 AM -11.2 °F -33.7 °F -14.8 °F 84% 30.32 in 10.0 mi North 15.0 mph - N/A   Clear
6:54 AM -9.4 °F -32.8 °F -14.8 °F 77% 30.34 in 7.0 mi NNW 17.3 mph - N/A   Clear
7:14 AM -7.6 °F -30.5 °F -11.2 °F 84% 30.35 in 4.0 mi North 17.3 mph - N/A   Clear
7:34 AM -7.6 °F -29.1 °F -11.2 °F 84% 30.35 in 7.0 mi North 15.0 mph - N/A   Clear
7:54 AM -7.6 °F -29.1 °F -11.2 °F 84% 30.36 in 7.0 mi North 15.0 mph - N/A   Clear
8:14 AM -7.6 °F -29.1 °F -11.2 °F 84% 30.36 in 3.0 mi North 15.0 mph - N/A   Mostly Cloudy
8:34 AM -7.6 °F -29.1 °F -11.2 °F 84% 30.36 in 4.0 mi North 15.0 mph - N/A   Overcast
8:54 AM -5.8 °F -27.5 °F -9.4 °F 84% 30.37 in 3.0 mi North 16.1 mph - N/A   Overcast
9:34 AM -4.0 °F -25.8 °F -7.6 °F 85% 30.38 in 1.8 mi North 17.3 mph - N/A   Overcast
9:54 AM -4.0 °F -23.0 °F -7.6 °F 85% 30.38 in 2.0 mi North 12.7 mph - N/A   Overcast
10:34 AM -5.8 °F -26.8 °F -9.4 °F 84% 30.38 in 2.5 mi NNW 15.0 mph - N/A   Overcast
10:54 AM -5.8 °F -27.5 °F -9.4 °F 84% 30.39 in 4.0 mi NNW 16.1 mph - N/A   Haze
11:14 AM -5.8 °F -26.0 °F -9.4 °F 84% 30.38 in 3.0 mi NNW 13.8 mph - N/A   Haze
11:34 AM -5.8 °F -27.5 °F -9.4 °F 84% 30.38 in 4.0 mi NNW 16.1 mph - N/A   Overcast
11:54 AM -5.8 °F -25.2 °F -11.2 °F 77% 30.37 in 7.0 mi NNW 12.7 mph - N/A   Scattered Clouds
12:14 PM -5.8 °F -26.8 °F -9.4 °F 84% 30.37 in 10.0 mi NNW 15.0 mph - N/A   Clear
12:34 PM -5.8 °F -26.0 °F -9.4 °F 84% 30.37 in 10.0 mi NNW 13.8 mph - N/A   Clear
12:54 PM -5.8 °F -24.4 °F -9.4 °F 84% 30.36 in 10.0 mi NNW 11.5 mph - N/A   Clear
1:14 PM -5.8 °F -24.4 °F -9.4 °F 84% 30.35 in 10.0 mi NNW 11.5 mph - N/A   Clear
1:34 PM -5.8 °F -24.4 °F -9.4 °F 84% 30.35 in 10.0 mi NNW 11.5 mph - N/A   Clear
1:54 PM -5.8 °F -24.4 °F -9.4 °F 84% 30.34 in 10.0 mi NNW 11.5 mph - N/A   Clear
2:14 PM -5.8 °F -26.0 °F -9.4 °F 84% 30.33 in 10.0 mi NNW 13.8 mph - N/A   Clear
2:34 PM -5.8 °F -24.4 °F -9.4 °F 84% 30.32 in 10.0 mi NNW 11.5 mph - N/A Snow Light Snow
2:54 PM -5.8 °F -25.2 °F -11.2 °F 77% 30.32 in 10.0 mi NNW 12.7 mph - N/A   Clear
3:14 PM -5.8 °F -26.8 °F -11.2 °F 77% 30.31 in 10.0 mi NNW 15.0 mph - N/A   Clear
3:34 PM -5.8 °F -26.0 °F -11.2 °F 77% 30.31 in 10.0 mi NNW 13.8 mph - N/A   Clear
3:54 PM -5.8 °F -24.4 °F -11.2 °F 77% 30.32 in 10.0 mi NNW 11.5 mph - N/A   Clear
4:14 PM -7.6 °F -26.6 °F -11.2 °F 84% 30.31 in 10.0 mi NNW 11.5 mph - N/A   Clear
4:34 PM -7.6 °F -25.7 °F -13.0 °F 77% 30.31 in 10.0 mi NNW 10.4 mph - N/A   Clear
4:54 PM -7.6 °F -25.7 °F -14.8 °F 71% 30.31 in 10.0 mi NNW 10.4 mph - N/A   Clear
5:14 PM -9.4 °F -25.6 °F -14.8 °F 77% 30.31 in 10.0 mi NNW 8.1 mph - N/A   Clear
5:34 PM -9.4 °F -22.7 °F -16.6 °F 71% 30.30 in 10.0 mi NNW 5.8 mph - N/A   Clear
5:54 PM -11.2 °F -23.0 °F -16.6 °F 77% 30.30 in 10.0 mi NW 4.6 mph - N/A   Clear
6:14 PM -11.2 °F -24.8 °F -16.6 °F 77% 30.30 in 10.0 mi NNW 5.8 mph - N/A   Clear
6:34 PM -13.0 °F -25.1 °F -16.6 °F 84% 30.30 in 10.0 mi NNW 4.6 mph - N/A   Clear
6:54 PM -14.8 °F -27.2 °F -18.4 °F 84% 30.29 in 10.0 mi NNW 4.6 mph - N/A   Clear
7:14 PM -14.8 °F -24.8 °F -18.4 °F 84% 30.28 in 10.0 mi NNE 3.5 mph - N/A   Clear
7:34 PM -14.8 °F -24.8 °F -18.4 °F 84% 30.27 in 10.0 mi NE 3.5 mph - N/A   Clear
8:14 PM -16.6 °F - -20.2 °F 84% 30.25 in 10.0 mi Calm Calm - N/A   Clear
8:33 PM -18.4 °F -33.4 °F -23.8 °F 76% 30.24 in 10.0 mi East 5.8 mph - N/A   Clear
8:54 PM -14.8 °F -24.8 °F -18.4 °F 84% 30.23 in 10.0 mi East 3.5 mph - N/A   Clear
9:14 PM -16.6 °F - -23.8 °F 70% 30.22 in 10.0 mi Calm Calm - N/A   Clear
9:33 PM -20.2 °F -30.9 °F -25.6 °F 76% 30.22 in 10.0 mi SSE 3.5 mph - N/A   Clear
9:54 PM -20.2 °F - -25.6 °F 76% 30.22 in 10.0 mi Calm Calm - N/A   Clear
10:14 PM -18.4 °F - -25.6 °F 70% 30.21 in 10.0 mi Calm Calm - N/A   Clear
10:33 PM -18.4 °F - -23.8 °F 76% 30.20 in 10.0 mi Calm Calm - N/A   Clear
10:54 PM -18.4 °F -28.9 °F -23.8 °F 76% 30.18 in 10.0 mi South 3.5 mph - N/A   Clear
11:14 PM -16.6 °F - -22.0 °F 76% 30.16 in 10.0 mi Calm Calm - N/A   Clear
11:33 PM -18.4 °F -31.4 °F -23.8 °F 76% 30.15 in 10.0 mi SSE 4.6 mph - N/A   Clear
11:54 PM -18.4 °F -28.9 °F -23.8 °F 76% 30.14 in 10.0 mi SSE 3.5 mph - N/A   Clear